createdAt,value
2022-10-08T00:00:20.451Z,2.30
2022-10-08T00:03:07.325Z,2.00
2022-10-08T00:05:57.754Z,2.03
2022-10-08T00:08:47.272Z,2.20
2022-10-08T00:11:36.876Z,2.40
2022-10-08T00:14:23.496Z,2.30
2022-10-08T00:17:10.084Z,2.47
2022-10-08T00:19:57.521Z,2.23
2022-10-08T00:22:44.036Z,2.37
2022-10-08T00:25:30.874Z,2.30
2022-10-08T00:28:18.783Z,2.53
2022-10-08T00:31:09.526Z,2.20
2022-10-08T00:33:58.580Z,2.30
2022-10-08T00:36:45.649Z,2.13
2022-10-08T00:39:32.408Z,2.20
2022-10-08T00:42:19.184Z,2.30
2022-10-08T00:45:12.779Z,2.40
2022-10-08T00:47:59.647Z,2.60
2022-10-08T00:50:46.392Z,2.53
2022-10-08T00:53:33.065Z,2.30
2022-10-08T00:56:20.380Z,2.70
2022-10-08T00:59:08.328Z,2.53
2022-10-08T01:01:56.441Z,2.50
2022-10-08T01:04:44.551Z,2.87
2022-10-08T01:07:34.875Z,2.53
2022-10-08T01:10:28.575Z,2.80
2022-10-08T01:13:29.076Z,2.23
2022-10-08T01:16:26.978Z,2.73
2022-10-08T01:19:38.807Z,2.37
2022-10-08T01:22:40.093Z,2.00
2022-10-08T01:25:37.764Z,2.60
2022-10-08T01:28:31.968Z,2.73
2022-10-08T01:31:22.823Z,2.50
2022-10-08T01:34:14.011Z,2.47
2022-10-08T01:37:02.472Z,2.67
2022-10-08T01:39:51.627Z,2.47
2022-10-08T01:42:42.142Z,2.50
2022-10-08T01:45:34.455Z,2.57
2022-10-08T01:48:27.219Z,2.43
2022-10-08T01:51:19.097Z,2.60
2022-10-08T01:54:09.468Z,2.63
2022-10-08T01:56:59.289Z,2.43
2022-10-08T01:59:50.183Z,2.80
2022-10-08T02:02:38.268Z,2.93
2022-10-08T02:05:29.180Z,2.60
2022-10-08T02:08:15.867Z,2.73
2022-10-08T02:11:02.355Z,3.07
2022-10-08T02:13:48.909Z,2.70
2022-10-08T02:16:41.394Z,2.50
2022-10-08T02:19:43.284Z,2.37
2022-10-08T02:22:34.301Z,2.67
2022-10-08T02:25:25.870Z,3.43
2022-10-08T02:28:20.660Z,2.80
2022-10-08T02:31:11.351Z,2.70
2022-10-08T02:34:03.891Z,3.30
2022-10-08T02:36:57.783Z,2.70
2022-10-08T02:39:51.323Z,2.97
2022-10-08T02:42:41.200Z,2.83
2022-10-08T02:45:31.685Z,3.03
2022-10-08T02:48:24.856Z,2.93
2022-10-08T02:51:15.670Z,2.60
2022-10-08T02:54:06.033Z,2.30
2022-10-08T02:56:58.073Z,2.87
2022-10-08T02:59:45.640Z,2.87
2022-10-08T03:02:37.498Z,2.90
2022-10-08T03:05:24.827Z,2.87
2022-10-08T03:08:15.099Z,3.17
2022-10-08T03:11:05.122Z,2.70
2022-10-08T03:13:52.844Z,3.13
2022-10-08T03:16:41.581Z,2.90
2022-10-08T03:19:29.140Z,2.53
2022-10-08T03:22:15.500Z,3.10
2022-10-08T03:25:01.915Z,3.20
2022-10-08T03:27:51.372Z,2.70
2022-10-08T03:30:38.351Z,2.83
2022-10-08T03:33:25.271Z,2.73
2022-10-08T03:36:12.811Z,2.43
2022-10-08T03:38:59.885Z,2.97
2022-10-08T03:41:46.396Z,3.00
2022-10-08T03:44:34.351Z,4.13
2022-10-08T03:47:21.059Z,2.60
2022-10-08T03:50:08.252Z,2.77
2022-10-08T03:52:54.866Z,3.10
2022-10-08T03:55:41.462Z,2.83
2022-10-08T03:58:27.937Z,3.10
2022-10-08T04:01:17.593Z,3.00
2022-10-08T04:04:04.531Z,3.40
2022-10-08T04:06:51.077Z,3.50
2022-10-08T04:09:37.511Z,3.10
2022-10-08T04:12:24.054Z,3.27
2022-10-08T04:15:11.160Z,2.80
2022-10-08T04:17:59.193Z,3.50
2022-10-08T04:20:46.097Z,3.53
2022-10-08T04:23:34.072Z,3.50
2022-10-08T04:26:20.799Z,3.47
2022-10-08T04:29:08.259Z,3.57
2022-10-08T04:31:54.884Z,3.77
2022-10-08T04:34:42.871Z,3.67
2022-10-08T04:37:30.330Z,3.87
2022-10-08T04:40:17.161Z,3.37
2022-10-08T04:43:03.869Z,3.30
2022-10-08T04:45:50.437Z,3.47
2022-10-08T04:48:37.578Z,3.97
2022-10-08T04:51:27.041Z,3.50
2022-10-08T04:54:13.542Z,4.70
2022-10-08T04:57:00.012Z,4.10
2022-10-08T05:00:06.118Z,3.90
2022-10-08T05:02:53.075Z,4.60
2022-10-08T05:05:41.080Z,3.97
2022-10-08T05:08:29.983Z,4.33
2022-10-08T05:11:19.041Z,4.10
2022-10-08T05:14:05.445Z,4.30
2022-10-08T05:16:51.933Z,4.33
2022-10-08T05:19:38.246Z,4.70
2022-10-08T05:22:24.608Z,4.70
2022-10-08T05:25:12.697Z,5.50
2022-10-08T05:27:59.091Z,4.40
2022-10-08T05:30:46.050Z,4.93
2022-10-08T05:33:32.628Z,3.97
2022-10-08T05:36:21.650Z,4.50
2022-10-08T05:39:08.577Z,4.80
2022-10-08T05:41:56.798Z,5.10
2022-10-08T05:44:45.360Z,4.93
2022-10-08T05:47:32.432Z,5.20
2022-10-08T05:50:18.944Z,4.23
2022-10-08T05:53:09.173Z,4.63
2022-10-08T05:56:01.776Z,4.60
2022-10-08T05:58:50.807Z,4.97
2022-10-08T06:01:37.283Z,5.07
2022-10-08T06:04:23.822Z,4.53
2022-10-08T06:07:10.776Z,4.90
2022-10-08T06:09:57.399Z,5.20
2022-10-08T06:12:44.165Z,5.37
2022-10-08T06:15:32.311Z,5.10
2022-10-08T06:18:19.140Z,5.63
2022-10-08T06:21:08.060Z,4.83
2022-10-08T06:23:57.288Z,5.13
2022-10-08T06:26:45.638Z,4.83
2022-10-08T06:29:32.139Z,4.90
2022-10-08T06:32:19.877Z,5.60
2022-10-08T06:35:07.230Z,5.80
2022-10-08T06:37:54.036Z,5.60
2022-10-08T06:40:40.923Z,5.10
2022-10-08T06:43:27.632Z,5.33
2022-10-08T06:46:14.409Z,5.67
2022-10-08T06:49:03.144Z,5.70
2022-10-08T06:51:49.938Z,5.37
2022-10-08T06:54:36.398Z,5.47
2022-10-08T06:57:22.927Z,5.43
2022-10-08T07:00:10.745Z,4.93
2022-10-08T07:02:58.235Z,5.53
2022-10-08T07:05:46.163Z,6.23
2022-10-08T07:08:32.898Z,6.97
2022-10-08T07:11:20.805Z,7.23
2022-10-08T07:14:07.593Z,7.03
2022-10-08T07:16:54.123Z,7.03
2022-10-08T07:19:41.125Z,7.13
2022-10-08T07:22:29.041Z,7.43
2022-10-08T07:25:15.919Z,8.10
2022-10-08T07:28:02.342Z,7.57
2022-10-08T07:30:49.370Z,8.23
2022-10-08T07:33:36.255Z,7.80
2022-10-08T07:36:24.851Z,8.10
2022-10-08T07:39:15.439Z,8.03
2022-10-08T07:42:01.881Z,7.90
2022-10-08T07:44:48.503Z,8.10
2022-10-08T07:47:35.044Z,7.30
2022-10-08T07:50:21.547Z,8.33
2022-10-08T07:53:08.094Z,7.63
2022-10-08T07:55:58.653Z,7.27
2022-10-08T07:58:45.587Z,8.20
2022-10-08T08:01:33.421Z,8.23
2022-10-08T08:04:20.269Z,9.40
2022-10-08T08:07:06.656Z,8.30
2022-10-08T08:09:53.199Z,7.63
2022-10-08T08:12:41.321Z,8.30
2022-10-08T08:15:27.733Z,7.87
2022-10-08T08:18:14.168Z,7.03
2022-10-08T08:21:01.033Z,7.13
2022-10-08T08:23:49.475Z,7.00
2022-10-08T08:26:38.955Z,6.20
2022-10-08T08:29:27.082Z,6.90
2022-10-08T08:32:15.452Z,6.57
2022-10-08T08:35:02.235Z,5.67
2022-10-08T08:37:48.971Z,5.30
2022-10-08T08:40:35.316Z,5.97
2022-10-08T08:43:22.087Z,5.50
2022-10-08T08:46:15.069Z,4.57
2022-10-08T08:49:08.697Z,4.90
2022-10-08T08:51:56.956Z,4.73
2022-10-08T08:54:43.653Z,5.20
2022-10-08T08:57:37.976Z,4.67
2022-10-08T09:00:28.549Z,4.70
2022-10-08T09:03:22.312Z,4.40
2022-10-08T09:06:14.357Z,4.27
2022-10-08T09:09:16.943Z,4.03
2022-10-08T09:12:12.395Z,4.77
2022-10-08T09:15:02.265Z,4.47
2022-10-08T09:17:52.918Z,4.20
2022-10-08T09:20:41.511Z,3.60
2022-10-08T09:23:28.557Z,3.73
2022-10-08T09:26:18.360Z,3.50
2022-10-08T09:29:06.962Z,3.40
2022-10-08T09:31:53.480Z,3.70
2022-10-08T09:34:40.431Z,3.47
2022-10-08T09:37:28.287Z,3.40
2022-10-08T09:40:21.712Z,3.20
2022-10-08T09:43:14.604Z,3.33
2022-10-08T09:46:03.018Z,3.30
2022-10-08T09:48:49.969Z,3.20
2022-10-08T09:51:36.889Z,3.30
2022-10-08T09:54:28.413Z,2.70
2022-10-08T09:57:17.594Z,2.57
2022-10-08T10:00:06.915Z,3.00
2022-10-08T10:02:55.649Z,3.00
2022-10-08T10:05:42.492Z,3.20
2022-10-08T10:08:49.873Z,3.03
2022-10-08T10:11:42.090Z,2.23
2022-10-08T10:14:37.360Z,2.13
2022-10-08T10:17:39.559Z,2.80
2022-10-08T10:20:31.655Z,3.27
2022-10-08T10:23:22.921Z,2.50
2022-10-08T10:26:14.223Z,2.83
2022-10-08T10:29:07.562Z,2.30
2022-10-08T10:32:00.628Z,2.47
2022-10-08T10:35:01.696Z,2.47
2022-10-08T10:37:51.871Z,2.27
2022-10-08T10:40:43.572Z,2.20
2022-10-08T10:43:40.641Z,2.87
2022-10-08T10:46:34.922Z,1.70
2022-10-08T10:49:24.819Z,2.53
2022-10-08T10:52:34.551Z,2.53
2022-10-08T10:55:25.062Z,2.40
2022-10-08T10:58:37.592Z,2.10
2022-10-08T11:01:36.434Z,2.40
2022-10-08T11:04:39.157Z,1.80
2022-10-08T11:07:40.185Z,1.80
2022-10-08T11:10:39.860Z,1.60
2022-10-08T11:13:48.841Z,1.13
2022-10-08T11:16:47.163Z,1.00
2022-10-08T11:19:43.890Z,0.63
2022-10-08T11:22:37.582Z,0.90
2022-10-08T11:25:44.677Z,1.20
2022-10-08T11:28:49.392Z,0.63
2022-10-08T11:31:42.695Z,1.03
2022-10-08T11:34:33.397Z,1.20
2022-10-08T11:37:26.224Z,1.13
2022-10-08T11:40:22.327Z,1.10
2022-10-08T11:43:17.741Z,1.10
2022-10-08T11:46:31.523Z,1.00
2022-10-08T11:49:53.166Z,1.20
2022-10-08T11:52:39.863Z,1.30
2022-10-08T11:55:30.738Z,0.80
2022-10-08T11:58:24.764Z,0.90
2022-10-08T12:01:12.248Z,1.00
2022-10-08T12:04:06.104Z,0.80
2022-10-08T12:07:06.392Z,0.70
2022-10-08T12:10:18.816Z,0.90
2022-10-08T12:13:27.663Z,1.00
2022-10-08T12:16:14.153Z,0.93
2022-10-08T12:19:00.710Z,1.00
2022-10-08T12:21:51.712Z,1.00
2022-10-08T12:24:55.269Z,1.30
2022-10-08T12:27:42.203Z,0.97
2022-10-08T12:30:48.744Z,1.00
2022-10-08T12:33:35.293Z,1.00
2022-10-08T12:36:29.640Z,1.10
2022-10-08T12:39:28.819Z,1.00
2022-10-08T12:42:21.968Z,0.93
2022-10-08T12:45:16.714Z,1.10
2022-10-08T12:48:12.513Z,0.80
2022-10-08T12:51:08.301Z,1.10
2022-10-08T12:53:56.993Z,1.33
2022-10-08T12:56:43.824Z,0.83
2022-10-08T12:59:33.104Z,1.00
2022-10-08T13:02:27.799Z,1.10
2022-10-08T13:05:26.592Z,1.00
2022-10-08T13:08:31.419Z,0.80
2022-10-08T13:11:17.904Z,1.20
2022-10-08T13:14:04.768Z,0.90
2022-10-08T13:16:52.975Z,1.20
2022-10-08T13:19:41.379Z,0.90
2022-10-08T13:22:27.974Z,0.83
2022-10-08T13:25:36.390Z,0.70
2022-10-08T13:28:41.724Z,0.67
2022-10-08T13:31:29.113Z,1.37
2022-10-08T13:34:18.254Z,0.80
2022-10-08T13:37:08.253Z,1.07
2022-10-08T13:39:56.655Z,1.10
2022-10-08T13:42:45.669Z,0.80
2022-10-08T13:45:37.637Z,0.80
2022-10-08T13:48:24.168Z,0.90
2022-10-08T13:51:12.602Z,0.80
2022-10-08T13:53:59.187Z,0.80
2022-10-08T13:56:45.727Z,1.23
2022-10-08T13:59:32.222Z,0.90
2022-10-08T14:02:18.739Z,1.10
2022-10-08T14:05:05.901Z,0.97
2022-10-08T14:07:57.542Z,1.13
2022-10-08T14:10:44.861Z,0.93
2022-10-08T14:13:31.415Z,1.50
2022-10-08T14:16:17.874Z,0.73
2022-10-08T14:19:07.504Z,0.70
2022-10-08T14:21:57.762Z,0.80
2022-10-08T14:24:46.299Z,0.80
2022-10-08T14:27:32.785Z,1.03
2022-10-08T14:30:19.940Z,0.57
2022-10-08T14:33:11.231Z,0.77
2022-10-08T14:35:58.715Z,0.80
2022-10-08T14:38:45.206Z,0.70
2022-10-08T14:41:33.364Z,0.60
2022-10-08T14:44:22.430Z,1.00
2022-10-08T14:47:09.213Z,0.50
2022-10-08T14:49:55.517Z,0.90
2022-10-08T14:52:44.572Z,0.80
2022-10-08T14:55:31.782Z,0.53
2022-10-08T14:58:20.460Z,0.67
2022-10-08T15:01:07.511Z,0.70
2022-10-08T15:03:54.064Z,0.67
2022-10-08T15:06:40.524Z,0.60
2022-10-08T15:09:27.660Z,0.77
2022-10-08T15:12:14.244Z,0.53
2022-10-08T15:15:02.058Z,0.80
2022-10-08T15:17:49.175Z,0.60
2022-10-08T15:20:36.783Z,0.60
2022-10-08T15:23:23.422Z,0.60
2022-10-08T15:26:14.746Z,0.70
2022-10-08T15:29:01.809Z,0.60
2022-10-08T15:31:52.211Z,1.10
2022-10-08T15:34:38.915Z,0.77
2022-10-08T15:37:25.408Z,0.80
2022-10-08T15:40:11.964Z,0.63
2022-10-08T15:42:58.791Z,0.73
2022-10-08T15:45:46.033Z,0.60
2022-10-08T15:48:34.041Z,0.90
2022-10-08T15:51:20.892Z,1.10
2022-10-08T15:54:08.292Z,0.50
2022-10-08T15:56:55.131Z,0.90
2022-10-08T15:59:42.263Z,1.13
2022-10-08T16:02:28.932Z,1.10
2022-10-08T16:05:17.596Z,1.00
2022-10-08T16:08:06.487Z,0.90
2022-10-08T16:10:57.461Z,0.80
2022-10-08T16:13:45.933Z,0.77
2022-10-08T16:16:32.738Z,0.90
2022-10-08T16:19:21.309Z,1.20
2022-10-08T16:22:09.050Z,0.83
2022-10-08T16:24:55.572Z,0.80
2022-10-08T16:27:42.172Z,0.87
2022-10-08T16:30:28.504Z,1.00
2022-10-08T16:33:15.321Z,0.90
2022-10-08T16:36:04.207Z,0.90
2022-10-08T16:38:52.403Z,1.30
2022-10-08T16:41:39.169Z,1.63
2022-10-08T16:44:25.765Z,1.30
2022-10-08T16:47:12.133Z,1.33
2022-10-08T16:49:58.492Z,1.40
2022-10-08T16:52:45.160Z,1.13
2022-10-08T16:55:35.070Z,1.80
2022-10-08T16:58:21.411Z,0.97
2022-10-08T17:01:09.046Z,6.07
2022-10-08T17:03:56.532Z,2.90
2022-10-08T17:06:43.993Z,2.23
2022-10-08T17:09:30.588Z,2.00
2022-10-08T17:12:21.796Z,2.30
2022-10-08T17:15:10.091Z,1.70
2022-10-08T17:17:57.067Z,1.87
2022-10-08T17:20:43.627Z,1.70
2022-10-08T17:23:34.279Z,1.50
2022-10-08T17:26:22.710Z,1.93
2022-10-08T17:29:12.882Z,1.33
2022-10-08T17:32:02.747Z,1.50
2022-10-08T17:34:49.228Z,1.83
2022-10-08T17:37:35.792Z,1.60
2022-10-08T17:40:22.310Z,1.83
2022-10-08T17:43:09.205Z,1.53
2022-10-08T17:46:06.199Z,1.63
2022-10-08T17:48:53.609Z,1.20
2022-10-08T17:51:40.367Z,1.73
2022-10-08T17:54:27.009Z,1.63
2022-10-08T17:57:13.490Z,1.67
2022-10-08T17:59:59.859Z,1.73
2022-10-08T18:02:49.142Z,1.97
2022-10-08T18:05:36.184Z,2.50
2022-10-08T18:08:22.673Z,2.70
2022-10-08T18:11:13.624Z,1.70
2022-10-08T18:14:00.426Z,4.27
2022-10-08T18:16:48.620Z,3.30
2022-10-08T18:19:36.515Z,2.70
2022-10-08T18:22:23.340Z,4.40
2022-10-08T18:25:12.199Z,5.33
2022-10-08T18:27:58.959Z,2.40
2022-10-08T18:30:45.475Z,2.10
2022-10-08T18:33:32.603Z,2.27
2022-10-08T18:36:22.512Z,4.03
2022-10-08T18:39:12.001Z,1.57
2022-10-08T18:41:58.799Z,2.50
2022-10-08T18:44:45.243Z,2.30
2022-10-08T18:47:31.688Z,1.90
2022-10-08T18:50:18.210Z,1.50
2022-10-08T18:53:06.325Z,1.30
2022-10-08T18:55:53.235Z,1.63
2022-10-08T18:58:39.933Z,1.70
2022-10-08T19:01:28.359Z,1.67
2022-10-08T19:04:16.593Z,1.63
2022-10-08T19:07:03.636Z,1.50
2022-10-08T19:09:51.924Z,1.47
2022-10-08T19:12:38.688Z,1.70
2022-10-08T19:15:25.121Z,1.67
2022-10-08T19:18:11.439Z,2.73
2022-10-08T19:20:57.925Z,2.70
2022-10-08T19:23:44.571Z,2.90
2022-10-08T19:26:32.295Z,2.00
2022-10-08T19:29:20.977Z,1.37
2022-10-08T19:32:07.597Z,1.73
2022-10-08T19:34:54.056Z,1.70
2022-10-08T19:37:40.534Z,1.80
2022-10-08T19:40:27.040Z,1.50
2022-10-08T19:43:14.943Z,1.50
2022-10-08T19:46:03.815Z,1.10
2022-10-08T19:48:51.590Z,1.77
2022-10-08T19:51:39.086Z,1.20
2022-10-08T19:54:25.794Z,1.40
2022-10-08T19:57:12.572Z,1.53
2022-10-08T20:00:00.539Z,1.60
2022-10-08T20:02:47.787Z,1.90
2022-10-08T20:05:34.788Z,1.73
2022-10-08T20:08:21.612Z,1.33
2022-10-08T20:11:10.411Z,1.80
2022-10-08T20:13:57.359Z,1.50
2022-10-08T20:16:45.253Z,1.43
2022-10-08T20:19:31.848Z,1.67
2022-10-08T20:22:18.388Z,1.90
2022-10-08T20:25:05.830Z,1.63
2022-10-08T20:27:52.655Z,2.10
2022-10-08T20:30:39.547Z,2.20
2022-10-08T20:33:27.749Z,2.30
2022-10-08T20:36:16.079Z,1.87
2022-10-08T20:39:02.847Z,1.80
2022-10-08T20:41:49.671Z,2.13
2022-10-08T20:44:36.140Z,2.23
2022-10-08T20:47:22.699Z,1.83
2022-10-08T20:50:11.279Z,2.13
2022-10-08T20:52:57.693Z,1.93
2022-10-08T20:55:44.201Z,1.90
2022-10-08T20:58:32.229Z,1.90
2022-10-08T21:01:21.616Z,1.90
2022-10-08T21:04:08.834Z,1.90
2022-10-08T21:06:56.958Z,1.67
2022-10-08T21:09:43.784Z,2.47
2022-10-08T21:12:30.310Z,1.77
2022-10-08T21:15:16.827Z,1.90
2022-10-08T21:18:03.609Z,1.90
2022-10-08T21:20:52.106Z,1.57
2022-10-08T21:23:40.759Z,1.90
2022-10-08T21:26:28.982Z,1.40
2022-10-08T21:29:16.074Z,1.83
2022-10-08T21:32:02.547Z,1.80
2022-10-08T21:34:48.965Z,2.13
2022-10-08T21:37:35.599Z,2.20
2022-10-08T21:40:23.363Z,1.80
2022-10-08T21:43:10.093Z,1.90
2022-10-08T21:45:57.252Z,1.80
2022-10-08T21:48:44.425Z,2.20
2022-10-08T21:51:32.312Z,1.93
2022-10-08T21:54:19.017Z,2.37
2022-10-08T21:57:06.924Z,2.33
2022-10-08T21:59:53.417Z,2.77
2022-10-08T22:02:40.056Z,2.10
2022-10-08T22:05:29.858Z,2.03
2022-10-08T22:08:16.724Z,2.00
2022-10-08T22:11:05.775Z,2.63
2022-10-08T22:13:53.568Z,2.60
2022-10-08T22:16:40.424Z,1.93
2022-10-08T22:19:27.345Z,2.60
2022-10-08T22:22:13.956Z,2.40
2022-10-08T22:25:00.431Z,3.10
2022-10-08T22:27:46.920Z,2.90
2022-10-08T22:30:37.007Z,2.33
2022-10-08T22:33:23.620Z,2.47
2022-10-08T22:36:13.790Z,2.20
2022-10-08T22:39:01.266Z,2.40
2022-10-08T22:41:47.921Z,2.90
2022-10-08T22:44:34.219Z,2.50
2022-10-08T22:47:22.203Z,2.60
2022-10-08T22:50:09.549Z,2.67
2022-10-08T22:52:55.965Z,2.70
2022-10-08T22:55:42.484Z,2.97
2022-10-08T22:58:28.892Z,3.27
2022-10-08T23:01:17.263Z,3.17
2022-10-08T23:04:05.351Z,2.50
2022-10-08T23:06:52.097Z,3.00
2022-10-08T23:09:38.539Z,2.70
2022-10-08T23:12:25.241Z,2.30
2022-10-08T23:15:12.349Z,3.10
2022-10-08T23:17:58.689Z,2.47
2022-10-08T23:20:46.466Z,2.60
2022-10-08T23:23:34.100Z,2.43
2022-10-08T23:26:21.544Z,3.10
2022-10-08T23:29:08.152Z,2.73
2022-10-08T23:31:54.766Z,2.50
2022-10-08T23:34:41.619Z,3.20
2022-10-08T23:37:29.450Z,2.90
2022-10-08T23:40:16.222Z,3.27
2022-10-08T23:43:03.049Z,3.30
2022-10-08T23:45:49.353Z,3.00
2022-10-08T23:48:35.776Z,3.13
2022-10-08T23:51:23.847Z,3.57
2022-10-08T23:54:11.596Z,3.03
2022-10-08T23:56:58.201Z,3.60
2022-10-08T23:59:44.775Z,3.37
